Terminal Aerodrome Forecast
Issued by NWS

Home | Current Version | Previous Version | Text Only | Print | Product List | Glossary On
Versions: 1 2 3 4 5 6 7 8 9 10 11 12 13 14 15 16
213
FTUS44 KLIX 192146 AAA
TAFMSY
TAF AMD
KMSY 192146Z 1922/2024 34011G17KT P6SM FEW010 FEW250
     FM201300 06009KT P6SM FEW250
     FM201900 08005KT P6SM FEW250=

USA.gov is the U.S. government's official web portal to all federal, state and local government web resources and services.